Pagina principale
METAR-TAF:

METAR-TAF

Aeroporti :

Assuan, Egitto

latitudine: 23-58N, longitudine: 032-47E, altezza: 200 m

Osservazione

Il bollettino è stato emesso 2 ore e 9 minuti fa, alle 22:00 UTC
Vento 11 kt da nord/nord-est
Temperature 21°C
Umidità 43%
Pressione 1014 hPa
Visibilità 10 km o più
nessuna nube inferiore a 1500 m e nessun cumulonembo

METAR: HESN 202200Z 02011KT CAVOK 21/08 Q1014 NOSIG

Ora: 02:09 (00:09 UTC)

Previsione

Il bollettino è stato emesso 1 ora e 9 minuti fa, alle 23:00 UTC
Previsione valida dal 21 alle 00 UTC al 22 alle 06 UTC
Vento 10 kt da est/nord-est
Visibilità 10 km o più
nessuna nube inferiore a 1500 m e nessun cumulonembo

TAF: HESN 202300Z 2100/2206 07010KT CAVOK

Osservazioni e previsioni meteorologiche di più di 4000 aeroporti (messaggi METAR e TAF).

Le stazioni disponibili sono rappresentate dai dischi gialli e rossi sulla carta.

Puntare il mouse per vedere il nome della stazione.

Clicca sopra per visualizzare le osservazioni e previsioni meteorologiche.

Per cambiare la mappa : fare clic sui pulsanti verdi con una croce nera per ingrandire, il pulsante verde con un trattino per diminuire, o sulla freccia verde per le mappe adiacenti.


METAR-TAF: